Time;durP1;ratioP1;P1;durP2;ratioP2;P2;SDS_P1;SDS_P2;PMS_P1;PMS_P2;Temp;Humidity;BMP_temperature;BMP_pressure;BME280_temperature;BME280_humidity;BME280_pressure;Samples;Min_cycle;Max_cycle;Signal;HPM_P1;HPM_P2
2023/05/10 00:01:20;;;;;;;9.27;8.32;;;14.90;99.90;;;;;;4991814;28;20492;-68
2023/05/10 00:03:45;;;;;;;8.80;7.88;;;14.90;99.90;;;;;;4992340;28;20042;-68
2023/05/10 00:06:11;;;;;;;11.32;9.05;;;14.40;99.90;;;;;;4991859;28;20493;-68
2023/05/10 00:08:37;;;;;;;11.70;10.13;;;14.20;99.90;;;;;;4991826;28;20042;-68
2023/05/10 00:11:03;;;;;;;10.68;9.23;;;14.30;99.90;;;;;;4975483;28;20144;-68
2023/05/10 00:13:28;;;;;;;10.73;9.23;;;14.30;99.90;;;;;;4993089;28;20038;-67
2023/05/10 00:15:54;;;;;;;12.32;9.50;;;14.30;99.90;;;;;;4991739;28;20034;-68
2023/05/10 00:18:20;;;;;;;12.25;9.95;;;14.50;99.90;;;;;;4991617;28;20038;-68
2023/05/10 00:20:45;;;;;;;12.82;9.43;;;14.90;99.90;;;;;;4991445;28;20074;-68
2023/05/10 00:23:12;;;;;;;11.73;8.88;;;14.30;99.90;;;;;;4991731;28;20076;-68
2023/05/10 00:25:37;;;;;;;9.95;8.32;;;14.40;99.90;;;;;;4991780;28;20100;-68
2023/05/10 00:28:03;;;;;;;9.40;8.23;;;14.30;99.90;;;;;;4992850;28;20520;-68
2023/05/10 00:30:28;;;;;;;7.90;6.78;;;14.50;99.90;;;;;;4991245;28;20096;-68
2023/05/10 00:32:54;;;;;;;8.38;7.13;;;14.60;99.90;;;;;;4992431;28;20130;-68
2023/05/10 00:35:21;;;;;;;9.85;7.20;;;14.90;99.90;;;;;;4991724;28;20046;-68
2023/05/10 00:37:47;;;;;;;8.13;6.97;;;14.60;99.90;;;;;;4991683;28;20053;-68
2023/05/10 00:40:12;;;;;;;8.27;6.47;;;14.30;99.90;;;;;;4987542;28;20050;-68
2023/05/10 00:42:38;;;;;;;5.63;5.10;;;14.30;99.90;;;;;;4973407;28;20092;-68
2023/05/10 00:45:04;;;;;;;7.25;6.10;;;14.60;99.90;;;;;;4971961;28;20035;-68
2023/05/10 00:47:31;;;;;;;6.03;5.43;;;14.20;99.90;;;;;;4972070;28;20137;-68
2023/05/10 00:49:57;;;;;;;7.18;5.65;;;14.10;99.90;;;;;;4971934;28;20393;-68
2023/05/10 00:52:23;;;;;;;7.30;5.85;;;14.40;99.90;;;;;;4971733;28;20053;-68
2023/05/10 00:54:51;;;;;;;7.70;6.93;;;14.20;99.90;;;;;;4973220;28;20043;-69
2023/05/10 00:57:17;;;;;;;7.95;7.15;;;14.00;99.90;;;;;;4971699;28;20098;-69
2023/05/10 00:59:43;;;;;;;7.90;7.07;;;14.10;99.90;;;;;;4973066;28;20487;-68
2023/05/10 01:02:09;;;;;;;8.52;7.55;;;14.20;99.90;;;;;;4971676;28;20082;-68
2023/05/10 01:04:35;;;;;;;8.73;7.20;;;14.70;99.90;;;;;;4971664;28;20041;-67
2023/05/10 01:07:01;;;;;;;11.25;8.15;;;15.10;99.90;;;;;;4971697;28;20038;-68
2023/05/10 01:09:27;;;;;;;12.85;8.75;;;14.10;99.90;;;;;;4955526;28;20039;-68
2023/05/10 01:11:53;;;;;;;13.00;9.50;;;14.20;99.90;;;;;;4987923;28;20038;-68
2023/05/10 01:14:19;;;;;;;10.35;8.15;;;14.40;99.90;;;;;;4971521;28;20047;-68
2023/05/10 01:16:47;;;;;;;13.70;9.80;;;13.90;99.90;;;;;;4971494;28;20065;-67
2023/05/10 01:19:25;;;;;;;11.93;9.18;;;14.40;99.90;;;;;;4971455;28;20054;-68
2023/05/10 01:21:59;;;;;;;13.48;9.98;;;14.40;99.90;;;;;;4971149;28;20174;-68
2023/05/10 01:25:03;;;;;;;11.75;8.55;;;14.00;99.90;;;;;;4972528;28;20054;-68
2023/05/10 01:27:50;;;;;;;14.10;9.40;;;14.10;99.90;;;;;;4971506;28;20509;-68
2023/05/10 01:30:34;;;;;;;14.23;9.70;;;14.10;99.90;;;;;;4970990;28;20055;-68
2023/05/10 01:33:26;;;;;;;17.20;10.13;;;14.30;99.90;;;;;;4971346;28;20420;-68
2023/05/10 01:36:06;;;;;;;16.55;11.10;;;14.40;99.90;;;;;;4989290;28;20047;-68
2023/05/10 01:38:47;;;;;;;19.85;12.13;;;14.10;99.90;;;;;;4991559;28;20544;-68
2023/05/10 01:41:28;;;;;;;21.42;13.40;;;14.50;99.90;;;;;;4976458;28;20054;-67
2023/05/10 01:44:16;;;;;;;22.75;13.88;;;14.30;99.90;;;;;;4975186;28;20043;-69
2023/05/10 01:46:42;;;;;;;24.20;14.80;;;14.10;99.90;;;;;;4975097;28;20105;-67
2023/05/10 01:49:25;;;;;;;25.38;14.70;;;14.40;99.90;;;;;;4975096;28;20523;-68
2023/05/10 01:51:54;;;;;;;30.85;17.65;;;14.30;99.90;;;;;;4974775;28;20038;-68
2023/05/10 01:54:21;;;;;;;28.13;16.23;;;14.40;99.90;;;;;;4974901;28;20106;-68
2023/05/10 01:56:52;;;;;;;34.25;16.92;;;14.00;99.90;;;;;;4974879;28;20055;-67
2023/05/10 01:59:19;;;;;;;33.92;17.40;;;13.80;99.90;;;;;;4976036;28;20413;-68
2023/05/10 02:01:47;;;;;;;36.58;19.65;;;14.20;99.90;;;;;;4974698;28;20156;-68
2023/05/10 02:04:16;;;;;;;25.92;16.45;;;14.70;99.90;;;;;;4974854;28;20182;-67
2023/05/10 02:06:43;;;;;;;38.17;19.80;;;14.00;99.90;;;;;;4974980;28;20035;-68
2023/05/10 02:09:11;;;;;;;36.00;19.63;;;14.20;99.90;;;;;;4975708;28;20564;-68
2023/05/10 02:11:39;;;;;;;32.75;18.75;;;14.10;99.90;;;;;;4974609;28;20050;-68
2023/05/10 02:14:09;;;;;;;33.42;20.30;;;13.80;99.90;;;;;;4974925;28;20428;-68
2023/05/10 02:16:36;;;;;;;40.53;20.35;;;14.40;99.90;;;;;;4974661;28;20117;-67
2023/05/10 02:19:02;;;;;;;36.60;17.35;;;14.20;99.90;;;;;;4975859;28;20586;-69
2023/05/10 02:21:30;;;;;;;40.85;20.05;;;14.50;99.90;;;;;;4973962;28;20151;-68
2023/05/10 02:23:57;;;;;;;35.42;18.10;;;14.00;99.90;;;;;;4974641;28;20043;-68
2023/05/10 02:26:25;;;;;;;39.38;18.08;;;13.80;99.90;;;;;;4975931;28;20049;-68
2023/05/10 02:28:51;;;;;;;44.50;18.77;;;13.90;99.90;;;;;;4974369;28;20121;-68
2023/05/10 02:31:18;;;;;;;37.05;19.38;;;13.90;99.90;;;;;;4974160;28;20042;-69
2023/05/10 02:33:45;;;;;;;39.72;18.75;;;13.90;99.90;;;;;;4975688;28;20134;-69
2023/05/10 02:36:12;;;;;;;41.28;20.30;;;14.40;99.90;;;;;;4974118;28;20047;-68
2023/05/10 02:38:38;;;;;;;37.72;19.63;;;13.80;99.90;;;;;;4974183;28;20046;-68
2023/05/10 02:41:07;;;;;;;32.83;18.75;;;13.70;99.90;;;;;;4975332;28;20136;-68
2023/05/10 02:43:35;;;;;;;31.65;18.23;;;13.90;99.90;;;;;;4974161;28;20085;-68
2023/05/10 02:46:01;;;;;;;34.80;18.92;;;13.80;99.90;;;;;;4957697;28;20035;-68
2023/05/10 02:48:26;;;;;;;33.80;18.50;;;14.00;99.90;;;;;;4973122;28;20500;-68
2023/05/10 02:50:56;;;;;;;38.42;20.60;;;14.40;99.90;;;;;;4973565;28;20043;-68
2023/05/10 02:53:28;;;;;;;35.00;19.05;;;14.40;99.90;;;;;;4990064;28;20113;-68
2023/05/10 02:55:59;;;;;;;29.60;16.60;;;13.80;99.90;;;;;;4975291;28;20038;-68
2023/05/10 02:58:25;;;;;;;25.08;15.30;;;13.90;99.90;;;;;;4975216;28;20089;-68
2023/05/10 03:00:50;;;;;;;24.45;13.88;;;13.60;99.90;;;;;;4973622;28;20050;-68
2023/05/10 03:03:16;;;;;;;22.20;14.15;;;13.90;99.90;;;;;;4973819;28;20412;-68
2023/05/10 03:05:42;;;;;;;24.90;15.68;;;14.00;99.90;;;;;;4973783;28;20043;-68
2023/05/10 03:08:08;;;;;;;27.63;15.88;;;14.50;99.90;;;;;;4973804;28;20051;-68
2023/05/10 03:10:42;;;;;;;23.63;14.80;;;14.10;99.90;;;;;;4973445;28;20054;-68
2023/05/10 03:13:32;;;;;;;27.58;16.90;;;13.70;99.90;;;;;;4973642;28;20050;-69
2023/05/10 03:16:35;;;;;;;24.20;14.30;;;14.20;99.90;;;;;;4973514;28;20053;-68
2023/05/10 03:19:17;;;;;;;24.67;14.40;;;14.20;99.90;;;;;;4934162;28;20059;-68
2023/05/10 03:21:50;;;;;;;25.35;14.80;;;14.10;99.90;;;;;;4973204;28;20069;-67
2023/05/10 03:24:16;;;;;;;;;;;14.30;99.90;;;;;;4975650;28;20488;-68
2023/05/10 03:26:43;;;;;;;22.30;14.75;;;14.20;99.90;;;;;;4973219;28;19949;-68
2023/05/10 03:29:11;;;;;;;22.65;13.90;;;14.20;99.90;;;;;;4973292;28;20381;-68
2023/05/10 03:31:38;;;;;;;17.13;13.07;;;14.40;99.90;;;;;;4974332;28;20050;-68
2023/05/10 03:34:04;;;;;;;20.40;13.88;;;13.80;99.90;;;;;;4973472;28;20071;-66
2023/05/10 03:36:29;;;;;;;18.15;13.32;;;14.50;99.90;;;;;;4973521;28;20471;-68
2023/05/10 03:38:55;;;;;;;16.92;12.15;;;14.30;99.90;;;;;;4972923;28;20051;-68
2023/05/10 03:41:21;;;;;;;16.55;12.73;;;13.70;99.90;;;;;;4972712;28;20508;-68
2023/05/10 03:43:46;;;;;;;17.15;12.48;;;14.10;99.90;;;;;;4973046;28;20530;-68
2023/05/10 03:46:12;;;;;;;16.88;12.57;;;14.40;99.90;;;;;;4972708;28;20091;-67
2023/05/10 03:48:37;;;;;;;19.73;13.52;;;14.20;99.90;;;;;;4973168;28;20043;-68
2023/05/10 03:51:03;;;;;;;14.15;11.40;;;14.00;99.90;;;;;;4974032;28;20761;-68
2023/05/10 03:53:29;;;;;;;16.38;12.13;;;13.70;99.90;;;;;;4972825;28;20045;-68
2023/05/10 03:55:54;;;;;;;20.33;13.32;;;13.90;99.90;;;;;;4972622;28;20039;-68
2023/05/10 03:58:20;;;;;;;15.75;11.63;;;14.20;99.90;;;;;;4972400;28;20169;-68
2023/05/10 04:00:46;;;;;;;14.57;11.25;;;14.30;99.90;;;;;;4972242;28;20082;-68
2023/05/10 04:03:12;;;;;;;15.93;12.15;;;14.20;99.90;;;;;;4972653;28;20516;-68
2023/05/10 04:05:37;;;;;;;15.10;12.07;;;13.70;99.90;;;;;;4973115;28;20047;-68
2023/05/10 04:08:04;;;;;;;13.68;12.18;;;14.00;99.90;;;;;;4972584;28;20054;-69
2023/05/10 04:10:30;;;;;;;10.55;9.45;;;13.70;99.90;;;;;;4972054;28;20046;-68
2023/05/10 04:12:55;;;;;;;10.90;8.23;;;14.00;99.90;;;;;;4972932;28;20045;-68
2023/05/10 04:15:21;;;;;;;8.80;7.75;;;13.80;99.90;;;;;;4973887;28;20049;-68
2023/05/10 04:17:47;;;;;;;5.20;4.35;;;14.00;99.90;;;;;;4972369;28;20145;-68
2023/05/10 04:20:13;;;;;;;3.20;2.90;;;14.60;99.90;;;;;;4971854;28;20058;-68
2023/05/10 04:22:39;;;;;;;3.50;2.10;;;14.10;99.90;;;;;;4956477;28;20035;-68
2023/05/10 04:25:05;;;;;;;1.58;1.48;;;14.10;99.90;;;;;;4972362;28;20105;-68
2023/05/10 04:27:31;;;;;;;1.75;1.65;;;14.20;99.90;;;;;;4972497;28;20047;-68
2023/05/10 04:29:57;;;;;;;1.10;1.00;;;14.20;99.90;;;;;;4973469;28;20042;-68
2023/05/10 04:32:23;;;;;;;0.82;0.82;;;14.10;99.90;;;;;;4955753;28;20043;-68
2023/05/10 04:34:48;;;;;;;1.35;1.25;;;13.70;99.90;;;;;;4972178;28;20500;-68
2023/05/10 04:37:14;;;;;;;1.98;1.00;;;13.90;99.90;;;;;;4972005;28;20058;-68
2023/05/10 04:39:40;;;;;;;1.40;0.90;;;14.20;99.90;;;;;;4971824;28;20049;-68
2023/05/10 04:42:05;;;;;;;1.10;0.70;;;14.00;99.90;;;;;;4971479;28;20039;-68
2023/05/10 04:44:34;;;;;;;0.90;0.90;;;13.90;99.90;;;;;;4973257;28;20488;-68
2023/05/10 04:47:02;;;;;;;3.00;1.27;;;13.60;99.90;;;;;;4973202;28;20034;-68
2023/05/10 04:49:27;;;;;;;0.80;0.70;;;13.50;99.90;;;;;;4955786;28;20043;-68
2023/05/10 04:51:53;;;;;;;0.60;0.60;;;14.10;99.90;;;;;;4971705;28;20066;-68
2023/05/10 04:54:19;;;;;;;0.88;0.80;;;14.00;99.90;;;;;;4972222;28;20052;-68
2023/05/10 04:56:44;;;;;;;0.70;0.70;;;14.40;99.90;;;;;;4971849;28;20090;-67
2023/05/10 04:59:10;;;;;;;0.80;0.80;;;13.70;99.90;;;;;;4971675;28;20089;-68
2023/05/10 05:01:36;;;;;;;0.80;0.80;;;13.60;99.90;;;;;;4971537;28;20492;-68
2023/05/10 05:04:01;;;;;;;0.80;0.80;;;13.60;99.90;;;;;;4971654;28;20041;-68
2023/05/10 05:06:27;;;;;;;0.70;0.70;;;14.50;99.90;;;;;;4971500;28;20408;-68
2023/05/10 05:08:53;;;;;;;0.80;0.77;;;13.60;99.90;;;;;;4971675;28;20066;-68
2023/05/10 05:11:19;;;;;;;0.65;0.65;;;14.20;99.90;;;;;;4954538;28;20042;-67
2023/05/10 05:13:44;;;;;;;0.68;0.68;;;13.40;99.90;;;;;;4972761;28;20086;-68
2023/05/10 05:16:11;;;;;;;0.90;0.90;;;14.10;99.90;;;;;;4971557;28;20070;-67
2023/05/10 05:18:36;;;;;;;1.52;0.70;;;13.50;99.90;;;;;;4971550;28;20082;-68
2023/05/10 05:21:02;;;;;;;0.90;0.90;;;13.50;99.90;;;;;;4971249;28;20463;-68
2023/05/10 05:23:28;;;;;;;1.23;0.80;;;13.60;99.90;;;;;;4972807;28;20039;-68
2023/05/10 05:25:54;;;;;;;0.80;0.80;;;14.00;99.90;;;;;;4976206;28;20096;-69
2023/05/10 05:28:20;;;;;;;0.82;0.82;;;13.40;99.90;;;;;;4990950;28;20038;-68
2023/05/10 05:30:46;;;;;;;0.70;0.70;;;13.50;99.90;;;;;;4990608;28;20531;-68
2023/05/10 05:33:13;;;;;;;1.02;0.90;;;13.60;99.90;;;;;;4990645;28;20092;-68
2023/05/10 05:35:39;;;;;;;1.17;1.02;;;13.50;99.90;;;;;;4990679;28;20051;-69
2023/05/10 05:38:05;;;;;;;1.33;1.23;;;14.10;99.90;;;;;;4991051;28;20046;-69
2023/05/10 05:40:31;;;;;;;1.10;1.00;;;14.00;99.90;;;;;;4989645;28;20555;-70
2023/05/10 05:42:57;;;;;;;1.40;1.30;;;14.20;99.90;;;;;;4979253;28;20034;-68
2023/05/10 05:45:22;;;;;;;2.00;1.48;;;13.90;99.90;;;;;;4969245;28;20062;-68
2023/05/10 05:47:48;;;;;;;1.70;1.60;;;13.70;99.90;;;;;;4973152;28;20054;-68
2023/05/10 05:50:14;;;;;;;1.45;1.35;;;14.30;99.90;;;;;;4974151;28;20508;-70
2023/05/10 05:52:45;;;;;;;3.38;2.13;;;14.00;99.90;;;;;;4972489;28;20042;-69
2023/05/10 05:55:11;;;;;;;1.75;1.65;;;13.80;99.90;;;;;;4974628;28;20058;-69
2023/05/10 05:57:37;;;;;;;3.50;2.13;;;13.80;99.90;;;;;;4956630;28;20038;-69
2023/05/10 06:00:03;;;;;;;2.35;2.10;;;13.70;99.90;;;;;;4968670;28;20428;-69
2023/05/10 06:02:29;;;;;;;3.95;2.70;;;14.10;99.90;;;;;;4971885;28;20093;-69
2023/05/10 06:04:54;;;;;;;3.15;2.85;;;14.10;99.90;;;;;;4973315;28;20065;-69
2023/05/10 06:07:20;;;;;;;5.47;2.60;;;14.00;99.90;;;;;;4959323;28;20496;-65
2023/05/10 06:09:45;;;;;;;3.28;2.80;;;13.90;99.90;;;;;;4973778;28;20039;-69
2023/05/10 06:12:11;;;;;;;3.10;2.67;;;14.00;99.90;;;;;;4974052;28;20166;-69
2023/05/10 06:14:37;;;;;;;4.10;2.42;;;13.70;99.90;;;;;;4971604;28;20508;-68
2023/05/10 06:17:04;;;;;;;3.53;2.47;;;13.90;99.90;;;;;;4967979;28;20043;-69
2023/05/10 06:19:30;;;;;;;2.95;2.38;;;14.10;99.90;;;;;;4970223;28;20181;-69
2023/05/10 06:21:56;;;;;;;3.80;2.28;;;14.30;99.90;;;;;;4969422;28;20042;-68
2023/05/10 06:24:21;;;;;;;2.50;2.30;;;14.30;99.90;;;;;;4981397;28;20042;-68
2023/05/10 06:26:49;;;;;;;2.42;2.13;;;14.80;99.90;;;;;;4976367;28;20530;-69
2023/05/10 06:29:15;;;;;;;3.63;2.40;;;14.00;99.90;;;;;;4984044;28;20121;-69
2023/05/10 06:31:40;;;;;;;3.50;2.22;;;14.20;99.90;;;;;;4976651;28;20125;-69
2023/05/10 06:34:07;;;;;;;3.00;2.70;;;14.20;99.90;;;;;;4993342;28;20046;-72
2023/05/10 06:36:33;;;;;;;5.18;3.00;;;13.80;99.90;;;;;;4993666;28;20512;-74
2023/05/10 06:38:59;;;;;;;4.68;2.20;;;13.90;99.90;;;;;;5009941;28;20120;-71
2023/05/10 06:41:24;;;;;;;2.42;2.03;;;14.70;99.90;;;;;;4993613;28;20069;-72
2023/05/10 06:43:50;;;;;;;2.97;1.95;;;14.10;99.90;;;;;;4977354;28;20038;-72
2023/05/10 06:46:16;;;;;;;3.65;2.28;;;14.40;99.90;;;;;;4976129;28;20042;-70
2023/05/10 06:48:41;;;;;;;4.07;1.90;;;14.10;99.90;;;;;;4992427;28;20034;-71
2023/05/10 06:51:07;;;;;;;2.15;1.85;;;14.00;99.90;;;;;;4994269;28;20042;-71
2023/05/10 06:53:32;;;;;;;2.75;2.42;;;14.80;99.90;;;;;;4993489;28;20082;-71
2023/05/10 06:55:58;;;;;;;1.52;1.40;;;14.60;99.90;;;;;;4993423;28;20089;-70
2023/05/10 06:58:24;;;;;;;2.65;1.50;;;14.30;99.90;;;;;;4993345;28;20046;-71
2023/05/10 07:00:49;;;;;;;2.00;1.70;;;15.20;99.90;;;;;;4994336;28;20048;-70
2023/05/10 07:03:15;;;;;;;2.10;1.67;;;14.60;99.90;;;;;;4994451;28;20400;-70
2023/05/10 07:05:40;;;;;;;3.90;2.65;;;14.50;99.90;;;;;;4993456;28;20030;-71
2023/05/10 07:08:06;;;;;;;1.65;1.40;;;14.60;99.90;;;;;;4992632;28;20049;-71
2023/05/10 07:10:32;;;;;;;2.28;1.60;;;14.20;99.90;;;;;;4991517;28;20078;-71
2023/05/10 07:12:58;;;;;;;2.05;1.65;;;14.50;99.90;;;;;;4992293;28;20046;-71
2023/05/10 07:15:24;;;;;;;2.42;1.58;;;14.20;99.90;;;;;;4993299;28;20133;-71
2023/05/10 07:17:49;;;;;;;3.40;1.92;;;14.80;99.90;;;;;;4992932;28;20049;-71
2023/05/10 07:20:15;;;;;;;3.70;2.60;;;14.60;99.90;;;;;;4992683;28;20038;-71
2023/05/10 07:22:40;;;;;;;3.97;3.05;;;14.20;99.90;;;;;;4992936;28;20456;-71
2023/05/10 07:25:06;;;;;;;5.18;3.40;;;14.20;99.90;;;;;;4992576;28;20034;-71
2023/05/10 07:27:32;;;;;;;7.20;3.95;;;14.70;99.90;;;;;;4992841;28;20165;-71
2023/05/10 07:29:58;;;;;;;6.65;4.10;;;14.20;99.90;;;;;;4991821;28;20129;-71
2023/05/10 07:32:24;;;;;;;6.15;3.35;;;14.80;99.90;;;;;;4992292;28;20049;-71
2023/05/10 07:34:50;;;;;;;6.15;3.80;;;14.40;99.90;;;;;;4990843;28;20035;-72
2023/05/10 07:37:15;;;;;;;4.95;3.90;;;14.10;99.90;;;;;;4992303;28;20042;-72
2023/05/10 07:39:41;;;;;;;5.90;4.15;;;14.00;99.90;;;;;;4976803;28;20050;-72
2023/05/10 07:42:07;;;;;;;3.80;3.40;;;14.00;99.90;;;;;;4992782;28;20511;-72
2023/05/10 07:44:32;;;;;;;8.25;4.03;;;14.40;99.90;;;;;;4992834;28;20038;-72
2023/05/10 07:46:58;;;;;;;7.45;4.45;;;14.60;99.90;;;;;;4992870;28;20038;-72
2023/05/10 07:49:24;;;;;;;6.85;4.30;;;14.40;99.90;;;;;;4992455;28;20577;-72
2023/05/10 07:51:49;;;;;;;12.27;5.28;;;14.50;99.90;;;;;;4992306;28;20129;-72
2023/05/10 07:54:15;;;;;;;9.02;4.95;;;14.80;99.90;;;;;;4991615;28;20078;-72
2023/05/10 07:56:45;;;;;;;10.30;5.60;;;14.10;99.90;;;;;;4991658;28;20105;-72
2023/05/10 07:59:15;;;;;;;6.72;4.40;;;14.60;99.90;;;;;;4991808;28;20038;-72
2023/05/10 08:01:42;;;;;;;8.93;4.85;;;14.40;99.90;;;;;;4991339;28;20038;-72
2023/05/10 08:04:08;;;;;;;7.07;5.60;;;14.00;99.90;;;;;;4992074;28;20480;-72
2023/05/10 08:06:34;;;;;;;7.85;5.70;;;13.90;99.90;;;;;;4991478;28;20046;-72
2023/05/10 08:09:00;;;;;;;14.95;8.38;;;14.10;99.90;;;;;;4992064;28;20038;-72
2023/05/10 08:11:27;;;;;;;10.60;5.55;;;13.90;99.90;;;;;;4991749;28;20042;-72
2023/05/10 08:13:53;;;;;;;6.60;4.45;;;13.90;99.90;;;;;;4991965;28;20043;-72
2023/05/10 08:16:19;;;;;;;7.15;4.90;;;14.60;99.90;;;;;;4975665;28;20050;-72
2023/05/10 08:18:46;;;;;;;9.00;4.63;;;14.30;99.90;;;;;;4992084;28;20177;-72
2023/05/10 08:21:13;;;;;;;9.45;5.43;;;14.00;99.90;;;;;;4991209;28;20045;-72
2023/05/10 08:23:39;;;;;;;9.18;6.03;;;14.80;99.90;;;;;;4991408;28;20053;-72
2023/05/10 08:26:04;;;;;;;10.27;5.78;;;14.60;99.90;;;;;;4991100;28;20492;-73
2023/05/10 08:28:30;;;;;;;10.07;5.85;;;14.50;99.90;;;;;;4975000;28;20041;-72
2023/05/10 08:30:56;;;;;;;7.93;6.00;;;14.90;99.90;;;;;;4991067;28;20053;-71
2023/05/10 08:33:21;;;;;;;8.57;6.47;;;14.40;99.90;;;;;;4991617;28;20049;-72
2023/05/10 08:35:47;;;;;;;7.15;5.22;;;14.70;99.90;;;;;;4991594;28;20048;-72
2023/05/10 08:38:12;;;;;;;9.73;5.30;;;14.30;99.90;;;;;;4975573;28;20034;-73
2023/05/10 08:40:42;;;;;;;8.13;5.45;;;14.90;99.90;;;;;;4991199;28;20042;-72
2023/05/10 08:43:09;;;;;;;6.82;5.25;;;14.80;99.90;;;;;;4974937;28;20407;-72
2023/05/10 08:45:45;;;;;;;8.15;4.90;;;14.60;99.90;;;;;;4988296;28;20492;-71
2023/05/10 08:48:11;;;;;;;6.25;4.82;;;15.40;99.90;;;;;;4974611;28;20507;-73
2023/05/10 08:50:39;;;;;;;6.78;4.85;;;15.40;99.90;;;;;;4990877;28;20042;-72
2023/05/10 08:53:08;;;;;;;7.55;5.10;;;15.20;99.90;;;;;;4991333;28;20035;-72
2023/05/10 08:55:36;;;;;;;9.02;5.32;;;15.30;99.90;;;;;;4991132;28;20504;-72
2023/05/10 08:58:03;;;;;;;9.52;5.18;;;15.80;99.90;;;;;;4991159;28;20100;-72
2023/05/10 09:00:29;;;;;;;9.02;5.47;;;15.50;99.90;;;;;;4990910;28;20043;-71
2023/05/10 09:02:55;;;;;;;8.23;6.00;;;15.20;99.90;;;;;;4975088;28;20036;-72
2023/05/10 09:05:21;;;;;;;9.75;6.72;;;15.70;99.90;;;;;;4991128;28;20120;-72
2023/05/10 09:07:46;;;;;;;9.32;5.55;;;15.10;99.90;;;;;;4975169;28;20142;-72
2023/05/10 09:10:13;;;;;;;8.25;5.80;;;15.10;99.90;;;;;;4974629;28;20571;-72
2023/05/10 09:12:39;;;;;;;9.20;6.38;;;15.10;99.90;;;;;;4991472;28;20500;-72
2023/05/10 09:15:06;;;;;;;7.88;5.78;;;15.30;99.90;;;;;;4990973;28;20114;-72
2023/05/10 09:17:33;;;;;;;10.23;6.32;;;15.50;99.90;;;;;;4991028;28;20100;-72
2023/05/10 09:20:00;;;;;;;8.35;5.40;;;15.70;99.90;;;;;;4974147;28;20050;-72
2023/05/10 09:22:26;;;;;;;8.60;6.10;;;15.20;99.90;;;;;;4990401;28;20172;-72
2023/05/10 09:25:12;;;;;;;8.48;6.40;;;15.70;99.90;;;;;;4990149;28;20087;-72
2023/05/10 09:27:39;;;;;;;13.40;6.15;;;15.60;99.90;;;;;;4989316;28;20122;-71
2023/05/10 09:30:06;;;;;;;10.57;5.72;;;16.00;99.90;;;;;;4990686;28;20117;-71
2023/05/10 09:32:39;;;;;;;8.68;5.28;;;15.80;99.90;;;;;;4990727;28;20061;-72
2023/05/10 09:35:13;;;;;;;7.00;4.95;;;15.40;99.90;;;;;;4974606;28;20038;-72
2023/05/10 09:37:44;;;;;;;7.35;5.25;;;15.30;99.90;;;;;;4991051;28;20077;-72
2023/05/10 09:40:15;;;;;;;7.80;5.45;;;15.70;99.90;;;;;;4990136;28;20042;-72
2023/05/10 09:42:44;;;;;;;9.43;5.60;;;;;;;;;;4991103;28;20541;-72
2023/05/10 09:45:12;;;;;;;9.23;4.93;;;;;;;;;;4990868;28;20042;-71
2023/05/10 09:47:38;;;;;;;8.85;5.57;;;;;;;;;;4990681;28;20046;-72
2023/05/10 09:50:04;;;;;;;7.22;5.15;;;;;;;;;;4990399;28;20042;-71
2023/05/10 09:52:32;;;;;;;8.70;4.68;;;;;;;;;;4990862;28;20451;-72
2023/05/10 09:54:58;;;;;;;9.68;5.57;;;;;;;;;;4974485;28;20045;-71
2023/05/10 09:57:25;;;;;;;10.52;5.93;;;;;;;;;;4976942;28;20393;-72
2023/05/10 09:59:54;;;;;;;8.90;5.50;;;;;;;;;;5010882;28;20039;-72
2023/05/10 10:02:20;;;;;;;8.10;5.97;;;;;;;;;;4994593;28;20047;-71
2023/05/10 10:04:50;;;;;;;6.93;5.38;;;;;;;;;;4994003;28;20104;-72
2023/05/10 10:07:22;;;;;;;12.00;6.25;;;;;;;;;;4989318;28;20518;-71
2023/05/10 10:09:48;;;;;;;10.60;5.67;;;16.80;99.90;;;;;;4988430;28;20035;-72
2023/05/10 10:12:14;;;;;;;7.72;5.47;;;16.30;99.90;;;;;;4992596;28;20289;-72
2023/05/10 10:14:39;;;;;;;7.72;5.97;;;16.20;99.90;;;;;;4993711;28;20122;-70
2023/05/10 10:17:05;;;;;;;11.15;6.85;;;16.30;99.90;;;;;;4993357;28;20057;-72
2023/05/10 10:19:33;;;;;;;11.35;6.95;;;16.40;99.90;;;;;;4993685;28;20041;-72
2023/05/10 10:22:00;;;;;;;11.32;6.60;;;16.10;99.90;;;;;;4993752;28;20105;-72
2023/05/10 10:24:25;;;;;;;11.68;7.10;;;16.20;99.90;;;;;;4977284;28;20050;-72
2023/05/10 10:26:55;;;;;;;12.73;7.80;;;16.20;99.90;;;;;;4993355;28;20031;-72
2023/05/10 10:29:34;;;;;;;12.05;6.60;;;16.00;99.90;;;;;;4994105;28;20507;-72
2023/05/10 10:32:37;;;;;;;11.25;7.95;;;16.20;99.90;;;;;;4992848;28;20391;-72
2023/05/10 10:35:03;;;;;;;9.43;6.70;;;16.20;99.90;;;;;;4976164;28;20527;-72
2023/05/10 10:37:46;;;;;;;10.63;7.15;;;16.50;99.90;;;;;;4989131;28;20047;-72
2023/05/10 10:40:32;;;;;;;9.80;7.07;;;16.20;99.90;;;;;;4977881;28;20042;-72
2023/05/10 10:43:25;;;;;;;11.20;7.65;;;16.10;99.90;;;;;;4976993;28;20045;-72
2023/05/10 10:46:29;;;;;;;12.00;7.60;;;16.40;99.90;;;;;;4977039;28;20093;-71
2023/05/10 10:49:10;;;;;;;13.07;8.20;;;15.90;99.90;;;;;;4880815;29;20052;-72
2023/05/10 10:51:39;;;;;;;10.10;6.40;;;16.20;99.90;;;;;;4863551;29;20057;-72
2023/05/10 10:54:11;;;;;;;8.65;5.97;;;16.10;99.90;;;;;;4945750;28;20057;-72
2023/05/10 10:56:37;;;;;;;7.50;5.53;;;16.10;99.90;;;;;;4992452;28;20038;-72
2023/05/10 10:59:03;;;;;;;7.63;5.55;;;16.10;99.90;;;;;;4992552;28;20422;-72
2023/05/10 11:01:34;;;;;;;9.63;5.85;;;16.20;99.90;;;;;;4993002;28;20034;-71
2023/05/10 11:04:00;;;;;;;8.70;5.63;;;16.70;99.90;;;;;;4976068;28;20038;-72
2023/05/10 11:06:33;;;;;;;6.93;4.78;;;16.20;99.90;;;;;;4993125;28;20068;-73
2023/05/10 11:09:08;;;;;;;7.63;5.28;;;16.50;99.90;;;;;;4974861;28;20404;-72
2023/05/10 11:11:35;;;;;;;9.27;5.45;;;16.20;99.90;;;;;;4993051;28;20042;-72
2023/05/10 11:14:06;;;;;;;10.93;6.40;;;16.10;99.90;;;;;;4975996;28;20045;-72
2023/05/10 11:16:43;;;;;;;9.48;6.82;;;16.30;99.90;;;;;;4992443;28;20097;-71
2023/05/10 11:19:16;;;;;;;10.75;6.72;;;16.40;99.90;;;;;;4992278;28;20046;-72
2023/05/10 11:21:49;;;;;;;10.80;7.13;;;16.50;99.90;;;;;;4978559;28;20101;-72
2023/05/10 11:24:23;;;;;;;10.07;6.85;;;16.30;99.90;;;;;;4971342;28;20125;-72
2023/05/10 11:26:51;;;;;;;10.20;7.78;;;16.00;99.90;;;;;;4973105;28;20125;-72
2023/05/10 11:29:17;;;;;;;11.50;7.53;;;16.10;99.90;;;;;;4977163;28;20074;-73
2023/05/10 11:31:44;;;;;;;9.25;7.03;;;16.10;99.90;;;;;;4960178;28;20077;-72
2023/05/10 11:34:10;;;;;;;11.10;7.00;;;16.40;99.90;;;;;;4976469;28;20057;-73
2023/05/10 11:36:36;;;;;;;9.07;6.43;;;17.00;99.90;;;;;;4964863;28;20046;-72
2023/05/10 11:39:03;;;;;;;12.70;7.90;;;16.20;99.90;;;;;;4966446;28;20048;-72
2023/05/10 11:41:30;;;;;;;11.20;7.75;;;16.30;99.90;;;;;;4983149;28;20076;-72
2023/05/10 11:43:57;;;;;;;9.35;6.93;;;16.20;99.90;;;;;;4980858;28;20065;-72
2023/05/10 11:46:25;;;;;;;9.52;6.75;;;16.10;99.90;;;;;;4979665;28;20125;-73
2023/05/10 11:49:03;;;;;;;9.90;7.10;;;16.10;99.90;;;;;;4982249;28;20042;-71
2023/05/10 11:51:32;;;;;;;11.30;7.45;;;16.00;99.90;;;;;;4970311;28;20066;-72
2023/05/10 11:53:58;;;;;;;10.93;8.48;;;16.60;99.90;;;;;;4982654;28;20124;-72
2023/05/10 11:56:25;;;;;;;14.07;9.18;;;16.30;99.90;;;;;;4972180;28;20046;-72
2023/05/10 11:58:58;;;;;;;10.73;7.70;;;16.40;99.90;;;;;;4980941;28;20038;-71
2023/05/10 12:01:26;;;;;;;11.23;7.93;;;16.50;99.90;;;;;;4963972;28;20121;-73
2023/05/10 12:03:55;;;;;;;12.70;7.55;;;16.60;99.90;;;;;;4979015;28;20085;-72
2023/05/10 12:06:21;;;;;;;10.23;7.65;;;16.50;99.90;;;;;;4985004;28;20031;-73
2023/05/10 12:08:52;;;;;;;13.98;8.70;;;17.10;99.90;;;;;;4989721;28;20066;-72
2023/05/10 12:11:17;;;;;;;11.27;7.43;;;16.70;99.90;;;;;;4974520;28;20416;-73
2023/05/10 12:13:47;;;;;;;9.90;7.80;;;16.40;99.90;;;;;;4986908;28;20034;-72
2023/05/10 12:16:19;;;;;;;14.48;8.32;;;16.50;99.90;;;;;;4975553;28;20042;-72
2023/05/10 12:18:52;;;;;;;11.48;8.95;;;16.30;99.90;;;;;;4988598;28;20050;-72
2023/05/10 12:21:19;;;;;;;;;;;16.40;99.90;;;;;;4984229;28;20105;-72
2023/05/10 12:23:46;;;;;;;11.15;7.32;;;16.10;99.90;;;;;;4990202;28;19932;-72
2023/05/10 12:26:12;;;;;;;11.32;8.30;;;16.20;99.90;;;;;;5004723;28;20104;-72
2023/05/10 12:28:39;;;;;;;14.65;8.48;;;16.20;99.90;;;;;;4990998;28;20042;-72
2023/05/10 12:31:05;;;;;;;8.77;7.07;;;16.40;99.90;;;;;;4974316;28;20433;-72
2023/05/10 12:33:42;;;;;;;10.27;7.70;;;16.40;99.90;;;;;;4969975;28;20039;-72
2023/05/10 12:36:08;;;;;;;9.30;6.95;;;16.30;99.90;;;;;;4987760;28;20042;-72
2023/05/10 12:38:37;;;;;;;10.93;7.45;;;16.60;99.90;;;;;;4990626;28;20073;-71
2023/05/10 12:41:05;;;;;;;10.48;6.53;;;16.80;99.90;;;;;;4987789;28;20034;-72
2023/05/10 12:43:33;;;;;;;9.23;7.15;;;17.10;99.90;;;;;;4990473;28;20038;-71
2023/05/10 12:46:04;;;;;;;9.55;6.50;;;17.10;99.90;;;;;;4992090;28;20038;-72
2023/05/10 12:48:31;;;;;;;9.82;7.18;;;17.50;99.90;;;;;;4990085;28;20031;-72
2023/05/10 12:50:56;;;;;;;10.40;6.57;;;17.30;99.90;;;;;;4974678;28;20038;-72